Seven Seas Mariner — C6VV8 — position and weather

sailwx.info

Track history (hours):
 
Tides and Currents Weather Stations Pressure Air Temp Water Temp Dewpoint Dewpoint Depression Visibility Wind Speed Wind Dir Waves Ship Positions

Seven Seas Mariner

Last reported at 2017-May-25 10:30 UTC. Time now 2017-May-25 10:34 UTC.
Position N 49°54' W 125°03'.

Length 216 m; draft 7.2 m.

Type: Ship. MMSI: 311622000.

Date/timePositionNaut miles runAvg speedWind from/ knotsBaromVisibWave heightAir tempDewpointWater temp
2017-May-25 10:30N 49°54' W 125°03'713.2
2017-May-25 10:00N 49°49' W 124°55'612.9
2017-May-25 09:30N 49°44' W 124°48'713.3
2017-May-25 09:00N 49°39' W 124°41'713.3
2017-May-25 08:30N 49°34' W 124°34'713.6
2017-May-25 08:00N 49°29' W 124°28'2712.5
2017-May-25 05:50N 49°23' W 123°48'513.2
2017-May-25 05:30N 49°22' W 123°41'814.2
2017-May-25 04:55N 49°23' W 123°28'614.4
2017-May-25 04:30N 49°26' W 123°20'611.6
2017-May-25 04:00N 49°20' W 123°17'713.7
2017-May-25 03:30N 49°18' W 123°07'1 2.3
2017-May-25 03:00N 49°17' W 123°06'0 0.0
2017-May-25 02:30N 49°17' W 123°06'0 0.0
2017-May-25 02:00N 49°17' W 123°06'0 0.0
2017-May-25 01:30N 49°17' W 123°06'0 0.0
2017-May-25 01:00N 49°17' W 123°06'0 0.0
2017-May-25 00:30N 49°17' W 123°06'0 0.0
2017-May-25 00:00N 49°17' W 123°06'0 0.0
2017-May-24 23:30N 49°17' W 123°06'0 0.0
2017-May-24 23:00N 49°17' W 123°06'0 0.0
2017-May-24 22:30N 49°17' W 123°06'0 0.0
2017-May-24 22:00N 49°17' W 123°06'0 0.0
2017-May-24 21:30N 49°17' W 123°06'0 0.0
2017-May-24 21:00N 49°17' W 123°06'0 0.0
2017-May-24 20:30N 49°17' W 123°06'0 0.0
2017-May-24 20:00N 49°17' W 123°06'0 0.0
2017-May-24 19:30N 49°17' W 123°06'0 0.0
2017-May-24 19:00N 49°17' W 123°06'0 0.0
2017-May-24 18:30N 49°17' W 123°06'0 0.0
2017-May-24 18:00N 49°17' W 123°06'0 0.0
2017-May-24 17:30N 49°17' W 123°06'0 0.0
2017-May-24 17:00N 49°17' W 123°06'0 0.0
2017-May-24 16:31N 49°17' W 123°06'0 0.0
2017-May-24 16:00N 49°17' W 123°06'0 0.0
2017-May-24 15:30N 49°17' W 123°06'0 0.0
2017-May-24 15:00N 49°17' W 123°06'1 0.7
2017-May-24 14:00N 49°18' W 123°07'4 7.6
2017-May-24 13:30N 49°19' W 123°12'713.6
2017-May-24 13:00N 49°18' W 123°23'713.1
2017-May-24 12:30N 49°18' W 123°33'713.2
2017-May-24 11:59N 49°19' W 123°43'713.5
2017-May-24 11:30N 49°20' W 123°53'6 8.6
2017-May-24 10:48N 49°17' W 123°45'412.7
2017-May-24 10:29N 49°16' W 123°39'612.5
2017-May-24 10:00N 49°13' W 123°31'2 4.4
2017-May-24 09:30N 49°11' W 123°30'5 9.5
2017-May-24 09:00N 49°13' W 123°36'5 9.6
2017-May-24 08:30N 49°16' W 123°43'5 9.2
2017-May-24 08:00N 49°19' W 123°48'7 9.9
2017-May-24 07:20N 49°23' W 123°56'512.4
2017-May-24 06:58N 49°25' W 124°02'21 9.0
2017-May-24 04:38N 49°22' W 123°30'210.6
2017-May-24 04:29N 49°23' W 123°28'3 5.8
2017-May-24 04:00N 49°26' W 123°27'611.5
2017-May-24 03:30N 49°31' W 123°27'2 3.9
2017-May-24 02:54N 49°32' W 123°24'6 3.8
2017-May-24 01:18N 49°28' W 123°17'414.4
2017-May-24 01:00N 49°24' W 123°18'712.9
2017-May-24 00:30N 49°18' W 123°21'713.4
2017-May-24 00:00N 49°12' W 123°26'917.4
2017-May-23 23:30N 49°04' W 123°29'917.9
2017-May-23 23:00N 48°57' W 123°20'713.6
2017-May-23 22:30N 48°53' W 123°12'712.9
2017-May-23 22:00N 48°50' W 123°03'510.4
2017-May-23 21:30N 48°45' W 123°04'714.6
2017-May-23 21:00N 48°42' W 123°14'612.5
2017-May-23 20:30N 48°36' W 123°13'815.1
2017-May-23 20:00N 48°29' W 123°10'611.3
2017-May-23 19:30N 48°24' W 123°13'5 9.7
2017-May-23 19:00N 48°22' W 123°20'2 4.5
2017-May-23 18:30N 48°23' W 123°23'510.8
2017-May-23 18:00N 48°24' W 123°15'510.8
2017-May-23 17:30N 48°29' W 123°12'611.5
2017-May-23 17:00N 48°35' W 123°13'611.6
2017-May-23 16:30N 48°40' W 123°16'510.9
2017-May-23 16:00N 48°44' W 123°09'713.6
2017-May-23 15:30N 48°47' W 123°00'611.7
2017-May-23 15:00N 48°52' W 123°06'612.1
2017-May-23 14:30N 48°56' W 123°13'1212.3
2017-May-23 13:30N 49°05' W 123°26'612.2
2017-May-23 13:00N 49°09' W 123°33'612.2
2017-May-23 12:30N 49°13' W 123°39'612.4
2017-May-23 12:00N 49°16' W 123°48'612.5
2017-May-23 11:30N 49°19' W 123°57'912.6
2017-May-23 10:45N 49°23' W 124°09'412.6
2017-May-23 10:27N 49°25' W 124°15'512.4
2017-May-23 10:00N 49°27' W 124°23'612.1
2017-May-23 09:30N 49°30' W 124°30'612.5
2017-May-23 09:00N 49°35' W 124°37'612.6
2017-May-23 08:30N 49°40' W 124°43'612.6
2017-May-23 08:00N 49°45' W 124°49'612.8
2017-May-23 07:30N 49°49' W 124°56'612.7
2017-May-23 07:00N 49°54' W 125°03'612.5
2017-May-23 06:30N 49°58' W 125°10'612.2
2017-May-23 06:00N 50°03' W 125°15'714.5
2017-May-23 05:31N 50°09' W 125°21'612.4
2017-May-23 05:00N 50°15' W 125°23'4 8.6
2017-May-23 04:30N 50°19' W 125°25'810.2
2017-May-23 03:46N 50°22' W 125°36'311.3
2017-May-23 03:28N 50°22' W 125°41'1713.3
2017-May-23 02:14N 50°28' W 126°06'916.5
2017-May-23 01:42N 50°29' W 126°19'415.9
2017-May-23 01:28N 50°30' W 126°25'1015.9
2017-May-23 00:49N 50°32' W 126°41'513.6
2017-May-23 00:25N 50°37' W 126°45'1918.8
2017-May-22 23:25N 50°45' W 127°11'819.0
2017-May-22 23:00N 50°49' W 127°23'918.5
2017-May-22 22:30N 50°53' W 127°35'916.8
2017-May-22 22:00N 50°57' W 127°47'3 6.8
2017-May-22 21:30N 50°60' W 127°50'5 9.7
2017-May-22 21:00N 51°02' W 127°57'713.6
2017-May-22 20:29N 51°05' W 128°08'816.0
2017-May-22 20:00N 51°08' W 128°19'816.4
2017-May-22 19:30N 51°12' W 128°30'816.2
2017-May-22 19:01N 51°18' W 128°39'816.5
2017-May-22 18:30N 51°24' W 128°48'918.3
2017-May-22 18:00N 51°31' W 128°58'816.5
2017-May-22 17:30N 51°37' W 129°06'714.7
2017-May-22 17:01N 51°43' W 129°14'815.1
2017-May-22 16:30N 51°49' W 129°22'915.2
2017-May-22 15:55N 51°55' W 129°31'  
2017-May-19 01:00N 59°54' W 139°36'242 7.3 090 / 51019.4 5.4 9.0 7.1 9.0
2017-May-17 16:00N 56°30' W 135°30'69818.4 220 / 51015.6 5.4 9.0 4.9 9.0
2017-May-16 02:01N 46°52' W 124°57'021.1
2017-May-16 02:00N 46°52' W 124°57'918.4
2017-May-16 01:30N 46°45' W 124°49'918.6
2017-May-16 01:00N 46°38' W 124°41'918.7
2017-May-16 00:30N 46°30' W 124°32'1019.2
2017-May-16 00:00N 46°23' W 124°24'5295.8
2017-May-16 00:00N 46°18' W 124°24'713.8 180 / 191018.6 5.4 12.0 8.312.0
2017-May-15 23:30N 46°15' W 124°15'510.8
2017-May-15 23:01N 46°14' W 124°08'612.4
2017-May-15 22:31N 46°14' W 123°59'611.3
2017-May-15 22:01N 46°12' W 123°52'0 0.3
2017-May-15 21:29N 46°11' W 123°51'0 0.0
2017-May-15 20:58N 46°11' W 123°51'0 0.0
2017-May-15 20:28N 46°11' W 123°51'0 0.0
2017-May-15 19:58N 46°11' W 123°51'0 0.0
2017-May-15 19:28N 46°11' W 123°51'0 0.0
2017-May-15 19:01N 46°11' W 123°51'0 0.0
2017-May-15 18:30N 46°11' W 123°51'0 0.0
2017-May-15 18:00N 46°11' W 123°51'0 0.0
2017-May-15 17:30N 46°11' W 123°51'0 0.0
2017-May-15 17:00N 46°11' W 123°51'0 0.0
2017-May-15 16:29N 46°11' W 123°51'0 0.0
2017-May-15 15:56N 46°11' W 123°51'0 0.0
2017-May-15 15:29N 46°11' W 123°51'0 0.0
2017-May-15 14:59N 46°11' W 123°51'0 0.0
2017-May-15 13:58N 46°11' W 123°51'0 0.0
2017-May-15 13:28N 46°11' W 123°51'0 0.3
2017-May-15 13:01N 46°11' W 123°52'2 4.0
2017-May-15 12:31N 46°11' W 123°55'611.2
2017-May-15 12:01N 46°15' W 124°01'510.6
2017-May-15 11:31N 46°13' W 124°08'611.8
2017-May-15 11:00N 46°09' W 124°13'3 6.7
2017-May-15 10:30N 46°05' W 124°14'  
Track history (hours):
 
Tides and Currents Weather Stations Pressure Air Temp Water Temp Dewpoint Dewpoint Depression Visibility Wind Speed Wind Dir Waves Ship Positions

Seven Seas Mariner

Last reported at 2017-May-25 10:30 UTC. Time now 2017-May-25 10:34 UTC.
Position N 49°54' W 125°03'.

Length 216 m; draft 7.2 m.

Type: Ship. MMSI: 311622000.

Date/timePositionNaut miles runAvg speedWind from/ knotsBaromVisibWave heightAir tempDewpointWater temp
2017-May-25 10:30N 49°54' W 125°03'713.2
2017-May-25 10:00N 49°49' W 124°55'612.9
2017-May-25 09:30N 49°44' W 124°48'713.3
2017-May-25 09:00N 49°39' W 124°41'713.3
2017-May-25 08:30N 49°34' W 124°34'713.6
2017-May-25 08:00N 49°29' W 124°28'2712.5
2017-May-25 05:50N 49°23' W 123°48'513.2
2017-May-25 05:30N 49°22' W 123°41'814.2
2017-May-25 04:55N 49°23' W 123°28'614.4
2017-May-25 04:30N 49°26' W 123°20'611.6
2017-May-25 04:00N 49°20' W 123°17'713.7
2017-May-25 03:30N 49°18' W 123°07'1 2.3
2017-May-25 03:00N 49°17' W 123°06'0 0.0
2017-May-25 02:30N 49°17' W 123°06'0 0.0
2017-May-25 02:00N 49°17' W 123°06'0 0.0
2017-May-25 01:30N 49°17' W 123°06'0 0.0
2017-May-25 01:00N 49°17' W 123°06'0 0.0
2017-May-25 00:30N 49°17' W 123°06'0 0.0
2017-May-25 00:00N 49°17' W 123°06'0 0.0
2017-May-24 23:30N 49°17' W 123°06'0 0.0
2017-May-24 23:00N 49°17' W 123°06'0 0.0
2017-May-24 22:30N 49°17' W 123°06'0 0.0
2017-May-24 22:00N 49°17' W 123°06'0 0.0
2017-May-24 21:30N 49°17' W 123°06'0 0.0
2017-May-24 21:00N 49°17' W 123°06'0 0.0
2017-May-24 20:30N 49°17' W 123°06'0 0.0
2017-May-24 20:00N 49°17' W 123°06'0 0.0
2017-May-24 19:30N 49°17' W 123°06'0 0.0
2017-May-24 19:00N 49°17' W 123°06'0 0.0
2017-May-24 18:30N 49°17' W 123°06'0 0.0
2017-May-24 18:00N 49°17' W 123°06'0 0.0
2017-May-24 17:30N 49°17' W 123°06'0 0.0
2017-May-24 17:00N 49°17' W 123°06'0 0.0
2017-May-24 16:31N 49°17' W 123°06'0 0.0
2017-May-24 16:00N 49°17' W 123°06'0 0.0
2017-May-24 15:30N 49°17' W 123°06'0 0.0
2017-May-24 15:00N 49°17' W 123°06'1 0.7
2017-May-24 14:00N 49°18' W 123°07'4 7.6
2017-May-24 13:30N 49°19' W 123°12'713.6
2017-May-24 13:00N 49°18' W 123°23'713.1
2017-May-24 12:30N 49°18' W 123°33'713.2
2017-May-24 11:59N 49°19' W 123°43'713.5
2017-May-24 11:30N 49°20' W 123°53'6 8.6
2017-May-24 10:48N 49°17' W 123°45'412.7
2017-May-24 10:29N 49°16' W 123°39'612.5
2017-May-24 10:00N 49°13' W 123°31'2 4.4
2017-May-24 09:30N 49°11' W 123°30'5 9.5
2017-May-24 09:00N 49°13' W 123°36'5 9.6
2017-May-24 08:30N 49°16' W 123°43'5 9.2
2017-May-24 08:00N 49°19' W 123°48'7 9.9
2017-May-24 07:20N 49°23' W 123°56'512.4
2017-May-24 06:58N 49°25' W 124°02'21 9.0
2017-May-24 04:38N 49°22' W 123°30'210.6
2017-May-24 04:29N 49°23' W 123°28'3 5.8
2017-May-24 04:00N 49°26' W 123°27'611.5
2017-May-24 03:30N 49°31' W 123°27'2 3.9
2017-May-24 02:54N 49°32' W 123°24'6 3.8
2017-May-24 01:18N 49°28' W 123°17'414.4
2017-May-24 01:00N 49°24' W 123°18'712.9
2017-May-24 00:30N 49°18' W 123°21'713.4
2017-May-24 00:00N 49°12' W 123°26'917.4
2017-May-23 23:30N 49°04' W 123°29'917.9
2017-May-23 23:00N 48°57' W 123°20'713.6
2017-May-23 22:30N 48°53' W 123°12'712.9
2017-May-23 22:00N 48°50' W 123°03'510.4
2017-May-23 21:30N 48°45' W 123°04'714.6
2017-May-23 21:00N 48°42' W 123°14'612.5
2017-May-23 20:30N 48°36' W 123°13'815.1
2017-May-23 20:00N 48°29' W 123°10'611.3
2017-May-23 19:30N 48°24' W 123°13'5 9.7
2017-May-23 19:00N 48°22' W 123°20'2 4.5
2017-May-23 18:30N 48°23' W 123°23'510.8
2017-May-23 18:00N 48°24' W 123°15'510.8
2017-May-23 17:30N 48°29' W 123°12'611.5
2017-May-23 17:00N 48°35' W 123°13'611.6
2017-May-23 16:30N 48°40' W 123°16'510.9
2017-May-23 16:00N 48°44' W 123°09'713.6
2017-May-23 15:30N 48°47' W 123°00'611.7
2017-May-23 15:00N 48°52' W 123°06'612.1
2017-May-23 14:30N 48°56' W 123°13'1212.3
2017-May-23 13:30N 49°05' W 123°26'612.2
2017-May-23 13:00N 49°09' W 123°33'612.2
2017-May-23 12:30N 49°13' W 123°39'612.4
2017-May-23 12:00N 49°16' W 123°48'612.5
2017-May-23 11:30N 49°19' W 123°57'912.6
2017-May-23 10:45N 49°23' W 124°09'412.6
2017-May-23 10:27N 49°25' W 124°15'512.4
2017-May-23 10:00N 49°27' W 124°23'612.1
2017-May-23 09:30N 49°30' W 124°30'612.5
2017-May-23 09:00N 49°35' W 124°37'612.6
2017-May-23 08:30N 49°40' W 124°43'612.6
2017-May-23 08:00N 49°45' W 124°49'612.8
2017-May-23 07:30N 49°49' W 124°56'612.7
2017-May-23 07:00N 49°54' W 125°03'612.5
2017-May-23 06:30N 49°58' W 125°10'612.2
2017-May-23 06:00N 50°03' W 125°15'714.5
2017-May-23 05:31N 50°09' W 125°21'612.4
2017-May-23 05:00N 50°15' W 125°23'4 8.6
2017-May-23 04:30N 50°19' W 125°25'810.2
2017-May-23 03:46N 50°22' W 125°36'311.3
2017-May-23 03:28N 50°22' W 125°41'1713.3
2017-May-23 02:14N 50°28' W 126°06'916.5
2017-May-23 01:42N 50°29' W 126°19'415.9
2017-May-23 01:28N 50°30' W 126°25'1015.9
2017-May-23 00:49N 50°32' W 126°41'513.6
2017-May-23 00:25N 50°37' W 126°45'1918.8
2017-May-22 23:25N 50°45' W 127°11'819.0
2017-May-22 23:00N 50°49' W 127°23'918.5
2017-May-22 22:30N 50°53' W 127°35'916.8
2017-May-22 22:00N 50°57' W 127°47'3 6.8
2017-May-22 21:30N 50°60' W 127°50'5 9.7
2017-May-22 21:00N 51°02' W 127°57'713.6
2017-May-22 20:29N 51°05' W 128°08'816.0
2017-May-22 20:00N 51°08' W 128°19'816.4
2017-May-22 19:30N 51°12' W 128°30'816.2
2017-May-22 19:01N 51°18' W 128°39'816.5
2017-May-22 18:30N 51°24' W 128°48'918.3
2017-May-22 18:00N 51°31' W 128°58'816.5
2017-May-22 17:30N 51°37' W 129°06'714.7
2017-May-22 17:01N 51°43' W 129°14'815.1
2017-May-22 16:30N 51°49' W 129°22'915.2
2017-May-22 15:55N 51°55' W 129°31'  
2017-May-19 01:00N 59°54' W 139°36'242 7.3 090 / 51019.4 5.4 9.0 7.1 9.0
2017-May-17 16:00N 56°30' W 135°30'69818.4 220 / 51015.6 5.4 9.0 4.9 9.0
2017-May-16 02:01N 46°52' W 124°57'021.1
2017-May-16 02:00N 46°52' W 124°57'918.4
2017-May-16 01:30N 46°45' W 124°49'918.6
2017-May-16 01:00N 46°38' W 124°41'918.7
2017-May-16 00:30N 46°30' W 124°32'1019.2
2017-May-16 00:00N 46°23' W 124°24'5295.8
2017-May-16 00:00N 46°18' W 124°24'713.8 180 / 191018.6 5.4 12.0 8.312.0
2017-May-15 23:30N 46°15' W 124°15'510.8
2017-May-15 23:01N 46°14' W 124°08'612.4
2017-May-15 22:31N 46°14' W 123°59'611.3
2017-May-15 22:01N 46°12' W 123°52'0 0.3
2017-May-15 21:29N 46°11' W 123°51'0 0.0
2017-May-15 20:58N 46°11' W 123°51'0 0.0
2017-May-15 20:28N 46°11' W 123°51'0 0.0
2017-May-15 19:58N 46°11' W 123°51'0 0.0
2017-May-15 19:28N 46°11' W 123°51'0 0.0
2017-May-15 19:01N 46°11' W 123°51'0 0.0
2017-May-15 18:30N 46°11' W 123°51'0 0.0
2017-May-15 18:00N 46°11' W 123°51'0 0.0
2017-May-15 17:30N 46°11' W 123°51'0 0.0
2017-May-15 17:00N 46°11' W 123°51'0 0.0
2017-May-15 16:29N 46°11' W 123°51'0 0.0
2017-May-15 15:56N 46°11' W 123°51'0 0.0
2017-May-15 15:29N 46°11' W 123°51'0 0.0
2017-May-15 14:59N 46°11' W 123°51'0 0.0
2017-May-15 13:58N 46°11' W 123°51'0 0.0
2017-May-15 13:28N 46°11' W 123°51'0 0.3
2017-May-15 13:01N 46°11' W 123°52'2 4.0
2017-May-15 12:31N 46°11' W 123°55'611.2
2017-May-15 12:01N 46°15' W 124°01'510.6
2017-May-15 11:31N 46°13' W 124°08'611.8
2017-May-15 11:00N 46°09' W 124°13'3 6.7
2017-May-15 10:30N 46°05' W 124°14'  

Dump ship's entire track history